createdAt,value
2018-04-10T00:01:06.572Z,18.8
2018-04-10T00:11:06.469Z,19.2
2018-04-10T00:21:06.670Z,20.2
2018-04-10T00:31:06.499Z,24.4
2018-04-10T00:41:06.347Z,25.4
2018-04-10T00:51:06.190Z,25.6
2018-04-10T01:01:05.998Z,22.3
2018-04-10T01:11:05.828Z,25.0
2018-04-10T01:21:05.771Z,22.9
2018-04-10T01:31:06.640Z,25.1
2018-04-10T01:41:06.481Z,25.3
2018-04-10T01:51:06.883Z,23.9
2018-04-10T02:01:06.679Z,24.2
2018-04-10T02:11:06.518Z,25.3
2018-04-10T02:21:06.450Z,23.0
2018-04-10T02:31:06.292Z,27.5
2018-04-10T02:41:06.190Z,25.3
2018-04-10T02:51:06.020Z,23.5
2018-04-10T03:01:05.847Z,25.6
2018-04-10T03:11:06.691Z,29.7
2018-04-10T03:21:06.665Z,25.5
2018-04-10T03:31:06.540Z,24.2
2018-04-10T03:41:06.835Z,22.0
2018-04-10T03:51:06.608Z,28.0
2018-04-10T04:01:06.397Z,25.0
2018-04-10T04:11:06.252Z,25.1
2018-04-10T04:21:06.187Z,21.8
2018-04-10T04:31:06.763Z,25.7
2018-04-10T04:41:06.619Z,25.2
2018-04-10T04:51:06.454Z,25.6
2018-04-10T05:01:06.285Z,23.4
2018-04-10T05:11:06.602Z,25.3
2018-04-10T05:21:06.601Z,23.1
2018-04-10T05:31:06.401Z,23.2
2018-04-10T05:41:06.530Z,23.3
2018-04-10T05:51:06.375Z,20.1
2018-04-10T06:01:06.202Z,20.8
2018-04-10T06:11:06.039Z,24.0
2018-04-10T06:21:05.998Z,24.7
2018-04-10T06:31:07.015Z,21.3
2018-04-10T06:41:05.872Z,24.8
2018-04-10T06:51:06.961Z,24.6
2018-04-10T07:01:06.846Z,23.3
2018-04-10T07:11:06.940Z,20.5
2018-04-10T07:21:05.880Z,18.7
2018-04-10T07:31:06.807Z,19.0
2018-04-10T07:41:06.759Z,18.3
2018-04-10T07:51:06.857Z,16.5
2018-04-10T08:01:06.760Z,18.1
2018-04-10T08:11:06.671Z,18.4
2018-04-10T08:21:06.734Z,16.7
2018-04-10T08:31:06.596Z,16.9
2018-04-10T08:41:06.531Z,14.7
2018-04-10T08:51:06.423Z,14.8
2018-04-10T09:01:06.323Z,14.5
2018-04-10T09:11:06.203Z,14.3
2018-04-10T09:21:06.123Z,13.8
2018-04-10T09:31:06.018Z,10.4
2018-04-10T09:41:06.919Z,9.4
2018-04-10T09:51:05.802Z,8.6
2018-04-10T10:01:06.722Z,8.0
2018-04-10T10:11:06.633Z,7.8
2018-04-10T10:21:06.578Z,8.3
2018-04-10T10:31:06.519Z,7.9
2018-04-10T10:41:07.262Z,6.6
2018-04-10T10:51:06.024Z,6.7
2018-04-10T11:01:06.900Z,8.8
2018-04-10T11:11:06.774Z,9.5
2018-04-10T11:21:06.758Z,10.6
2018-04-10T11:31:06.641Z,9.6
2018-04-10T11:41:06.696Z,8.8
2018-04-10T11:51:06.013Z,9.4
2018-04-10T12:01:07.644Z,9.9
2018-04-10T12:11:06.940Z,5.0
2018-04-10T12:21:06.931Z,5.9
2018-04-10T12:31:07.429Z,8.9
2018-04-10T12:41:06.304Z,7.8
2018-04-10T12:51:06.339Z,5.7
2018-04-10T13:01:06.204Z,5.3
2018-04-10T13:11:05.300Z,5.7
2018-04-10T13:21:06.294Z,7.2
2018-04-10T13:31:06.213Z,7.2
2018-04-10T13:41:06.062Z,6.0
2018-04-10T13:51:06.909Z,5.4
2018-04-10T14:01:07.007Z,6.1
2018-04-10T14:11:07.391Z,6.1
2018-04-10T14:21:06.759Z,5.1
2018-04-10T14:31:06.725Z,4.4
2018-04-10T14:41:06.624Z,4.5
2018-04-10T14:51:06.541Z,4.8
2018-04-10T15:01:06.835Z,5.1
2018-04-10T15:11:06.732Z,4.8
2018-04-10T15:21:06.978Z,4.5
2018-04-10T15:31:06.804Z,4.9
2018-04-10T15:41:06.675Z,6.0
2018-04-10T15:51:06.567Z,5.4
2018-04-10T16:01:06.876Z,5.6
2018-04-10T16:11:07.352Z,6.5
2018-04-10T16:21:06.398Z,5.6
2018-04-10T16:31:06.242Z,5.6
2018-04-10T16:41:06.105Z,6.3
2018-04-10T16:51:06.941Z,6.9
2018-04-10T17:01:06.808Z,7.2
2018-04-10T17:11:06.689Z,7.8
2018-04-10T17:21:06.618Z,10.3
2018-04-10T17:31:06.756Z,8.6
2018-04-10T17:41:06.638Z,14.0
2018-04-10T17:51:06.523Z,16.1
2018-04-10T18:01:06.953Z,16.1
2018-04-10T18:11:06.758Z,19.3
2018-04-10T18:21:06.742Z,14.2
2018-04-10T18:31:06.686Z,14.3
2018-04-10T18:41:06.768Z,16.5
2018-04-10T18:51:06.608Z,14.1
2018-04-10T19:01:06.860Z,14.3
2018-04-10T19:11:06.780Z,14.2
2018-04-10T19:21:06.734Z,14.4
2018-04-10T19:31:06.839Z,15.1
2018-04-10T19:41:06.634Z,16.0
2018-04-10T19:51:06.546Z,17.3
2018-04-10T20:01:06.429Z,16.8
2018-04-10T20:11:06.294Z,17.0
2018-04-10T20:21:06.346Z,16.4
2018-04-10T20:31:06.309Z,15.8
2018-04-10T20:41:06.190Z,16.3
2018-04-10T20:51:07.057Z,15.3
2018-04-10T21:01:06.965Z,15.7
2018-04-10T21:11:06.859Z,17.1
2018-04-10T21:21:07.381Z,16.8
2018-04-10T21:31:06.355Z,20.0
2018-04-10T21:41:06.213Z,19.4
2018-04-10T21:51:07.093Z,21.1
2018-04-10T22:01:06.897Z,17.8
2018-04-10T22:11:06.720Z,22.3
2018-04-10T22:21:06.740Z,28.6
2018-04-10T22:31:06.651Z,24.1
2018-04-10T22:41:06.489Z,23.3
2018-04-10T22:51:06.366Z,23.3
2018-04-10T23:01:06.282Z,23.1
2018-04-10T23:11:07.195Z,23.2
2018-04-10T23:21:06.230Z,22.7
2018-04-10T23:31:07.092Z,24.5
2018-04-10T23:41:06.965Z,23.3
2018-04-10T23:51:06.816Z,24.8
